Time;durP1;ratioP1;P1;durP2;ratioP2;P2;SDS_P1;SDS_P2;PMS_P1;PMS_P2;Temp;Humidity;BMP_temperature;BMP_pressure;BME280_temperature;BME280_humidity;BME280_pressure;Samples;Min_cycle;Max_cycle;Signal;HPM_P1;HPM_P2
2022/02/13 00:00:35;;;;;;;10.00;4.55;;;4.20;95.70;;;;;;2105899;28;20051;-68
2022/02/13 00:01:36;;;;;;;7.32;4.45;;;4.20;95.60;;;;;;2111686;28;20089;-68
2022/02/13 00:02:38;;;;;;;9.02;4.65;;;4.20;95.60;;;;;;2106851;28;20111;-68
2022/02/13 00:03:39;;;;;;;10.15;5.25;;;4.20;95.80;;;;;;2106511;28;20578;-68
2022/02/13 00:04:39;;;;;;;9.43;5.25;;;4.20;95.80;;;;;;2103753;28;20103;-68
2022/02/13 00:05:40;;;;;;;8.00;4.78;;;4.20;95.80;;;;;;2105856;28;20476;-68
2022/02/13 00:06:40;;;;;;;10.68;4.63;;;4.10;95.70;;;;;;2108741;28;20045;-68
2022/02/13 00:07:41;;;;;;;8.52;4.85;;;4.10;95.60;;;;;;2104492;28;20070;-68
2022/02/13 00:08:42;;;;;;;9.20;4.93;;;4.10;95.60;;;;;;2106980;28;20036;-68
2022/02/13 00:09:42;;;;;;;8.10;4.53;;;4.10;95.60;;;;;;2104765;28;20383;-68
2022/02/13 00:10:43;;;;;;;8.98;4.50;;;4.10;95.70;;;;;;2105395;28;20025;-68
2022/02/13 00:11:43;;;;;;;8.43;4.90;;;4.10;95.80;;;;;;2106533;28;20463;-68
2022/02/13 00:12:44;;;;;;;9.45;4.35;;;4.10;95.90;;;;;;2102921;28;20024;-68
2022/02/13 00:13:46;;;;;;;7.40;4.88;;;4.10;96.00;;;;;;2108719;28;20032;-68
2022/02/13 00:14:46;;;;;;;11.43;5.03;;;4.10;96.10;;;;;;2108357;28;20360;-68
2022/02/13 00:15:47;;;;;;;7.10;5.00;;;4.10;96.20;;;;;;2104641;28;20051;-68
2022/02/13 00:16:47;;;;;;;9.13;4.65;;;4.10;96.20;;;;;;2106772;28;20059;-68
2022/02/13 00:17:48;;;;;;;12.80;4.72;;;4.10;96.30;;;;;;2107459;28;20377;-68
2022/02/13 00:18:49;;;;;;;9.77;5.13;;;4.10;96.40;;;;;;2106770;28;20024;-68
2022/02/13 00:19:50;;;;;;;8.75;4.57;;;4.10;96.40;;;;;;2101080;28;20032;-68
2022/02/13 00:20:51;;;;;;;9.38;4.97;;;4.10;96.40;;;;;;2104402;28;20088;-68
2022/02/13 00:21:51;;;;;;;9.55;4.90;;;4.10;96.40;;;;;;2109047;28;20039;-68
2022/02/13 00:22:52;;;;;;;7.95;5.10;;;4.00;96.40;;;;;;2106896;28;20146;-68
2022/02/13 00:23:53;;;;;;;8.90;4.57;;;4.00;96.40;;;;;;2101586;28;20025;-68
2022/02/13 00:24:53;;;;;;;8.02;4.68;;;4.10;96.40;;;;;;2104299;28;20468;-68
2022/02/13 00:25:54;;;;;;;10.57;4.63;;;4.00;96.30;;;;;;2098915;28;20021;-68
2022/02/13 00:26:54;;;;;;;8.10;5.50;;;4.00;96.20;;;;;;2105836;28;20097;-68
2022/02/13 00:27:55;;;;;;;8.25;4.75;;;4.00;96.20;;;;;;2105349;28;20549;-68
2022/02/13 00:28:55;;;;;;;7.88;4.68;;;4.00;96.30;;;;;;2105659;28;20118;-68
2022/02/13 00:29:56;;;;;;;9.00;5.13;;;4.00;96.30;;;;;;2103543;28;20031;-68
2022/02/13 00:30:56;;;;;;;12.18;5.40;;;4.00;96.40;;;;;;2107137;28;20400;-68
2022/02/13 00:31:57;;;;;;;9.13;4.78;;;4.00;96.50;;;;;;2107374;28;20048;-68
2022/02/13 00:32:58;;;;;;;9.95;4.72;;;4.00;96.50;;;;;;2105902;28;20043;-68
2022/02/13 00:33:58;;;;;;;9.20;5.15;;;4.00;96.40;;;;;;2104011;28;20111;-68
2022/02/13 00:34:59;;;;;;;8.38;5.13;;;4.00;96.40;;;;;;2106182;28;20028;-68
2022/02/13 00:35:59;;;;;;;7.30;4.85;;;4.00;96.50;;;;;;2102302;28;20028;-68
2022/02/13 00:37:00;;;;;;;10.02;5.55;;;4.00;96.60;;;;;;2106393;28;20089;-68
2022/02/13 00:38:01;;;;;;;12.45;5.10;;;4.00;96.60;;;;;;2105354;28;20043;-68
2022/02/13 00:39:01;;;;;;;8.95;5.63;;;4.00;96.50;;;;;;2107414;28;20038;-68
2022/02/13 00:40:03;;;;;;;9.23;4.72;;;4.00;96.50;;;;;;2106850;28;20036;-68
2022/02/13 00:41:03;;;;;;;7.45;4.60;;;4.00;96.60;;;;;;2104126;28;20836;-68
2022/02/13 00:42:04;;;;;;;8.68;4.28;;;4.00;96.50;;;;;;2103638;28;20380;-68
2022/02/13 00:43:05;;;;;;;12.73;5.68;;;4.00;96.40;;;;;;2104971;28;20039;-68
2022/02/13 00:44:06;;;;;;;6.80;4.38;;;4.00;96.50;;;;;;2103663;28;20093;-68
2022/02/13 00:45:07;;;;;;;10.50;4.88;;;4.00;96.60;;;;;;2107467;28;20114;-68
2022/02/13 00:46:08;;;;;;;7.60;4.50;;;4.00;96.70;;;;;;2107223;28;20040;-68
2022/02/13 00:47:08;;;;;;;7.68;4.85;;;4.00;96.60;;;;;;2107167;28;20538;-68
2022/02/13 00:48:10;;;;;;;9.50;5.03;;;4.00;96.70;;;;;;2107641;28;20031;-68
2022/02/13 00:49:10;;;;;;;7.45;4.90;;;4.00;96.80;;;;;;2104361;28;20051;-68
2022/02/13 00:50:14;;;;;;;9.15;4.75;;;4.00;96.80;;;;;;2105399;28;20047;-68
2022/02/13 00:51:14;;;;;;;10.55;5.20;;;3.90;96.90;;;;;;2104146;28;20027;-68
2022/02/13 00:52:15;;;;;;;13.13;4.45;;;4.00;96.90;;;;;;2108279;28;20024;-68
2022/02/13 00:53:15;;;;;;;12.13;5.00;;;4.00;96.80;;;;;;2106625;28;20414;-68
2022/02/13 00:54:16;;;;;;;8.75;4.80;;;3.90;96.80;;;;;;2100801;28;20028;-68
2022/02/13 00:55:16;;;;;;;7.40;4.63;;;3.90;96.80;;;;;;2105974;28;20012;-68
2022/02/13 00:56:17;;;;;;;9.38;4.90;;;3.90;96.80;;;;;;2107453;28;20026;-68
2022/02/13 00:57:18;;;;;;;8.10;4.45;;;3.90;96.90;;;;;;2104113;28;20024;-68
2022/02/13 00:58:18;;;;;;;10.25;5.30;;;3.90;96.90;;;;;;2106584;28;20047;-68
2022/02/13 00:59:19;;;;;;;8.20;4.63;;;3.90;97.00;;;;;;2102941;28;20024;-68
2022/02/13 01:00:19;;;;;;;8.60;4.35;;;3.90;97.10;;;;;;2108441;28;20110;-68
2022/02/13 01:01:20;;;;;;;7.82;4.50;;;3.90;97.00;;;;;;2096843;28;20050;-68
2022/02/13 01:02:20;;;;;;;6.57;4.57;;;3.90;97.10;;;;;;2105956;28;20016;-68
2022/02/13 01:03:21;;;;;;;6.82;4.70;;;3.90;97.10;;;;;;2104935;28;20015;-68
2022/02/13 01:04:22;;;;;;;7.97;4.50;;;3.90;97.10;;;;;;2104058;28;20032;-68
2022/02/13 01:05:22;;;;;;;7.10;4.80;;;3.90;97.10;;;;;;2103999;28;20016;-68
2022/02/13 01:06:24;;;;;;;10.40;5.03;;;3.90;97.20;;;;;;2104372;28;20093;-68
2022/02/13 01:07:24;;;;;;;9.25;4.82;;;3.90;97.10;;;;;;2100435;28;20020;-68
2022/02/13 01:08:25;;;;;;;16.17;5.25;;;3.90;97.10;;;;;;2104421;28;20051;-68
2022/02/13 01:09:27;;;;;;;7.82;4.93;;;3.90;97.10;;;;;;2103224;28;20407;-68
2022/02/13 01:10:31;;;;;;;8.27;4.95;;;3.90;97.20;;;;;;2099783;28;20032;-68
2022/02/13 01:11:31;;;;;;;9.65;4.78;;;3.90;97.20;;;;;;2106317;28;20026;-68
2022/02/13 01:12:32;;;;;;;9.32;5.07;;;3.90;97.10;;;;;;2104725;28;20523;-68
2022/02/13 01:13:33;;;;;;;8.30;4.78;;;3.90;97.20;;;;;;2101844;28;20483;-68
2022/02/13 01:14:34;;;;;;;7.75;4.35;;;3.90;97.30;;;;;;2101439;28;20066;-68
2022/02/13 01:15:34;;;;;;;8.57;5.20;;;3.80;97.20;;;;;;2097225;28;20056;-68
2022/02/13 01:16:35;;;;;;;7.53;4.95;;;3.90;97.30;;;;;;2107112;28;20027;-68
2022/02/13 01:17:35;;;;;;;10.40;4.85;;;3.90;97.20;;;;;;2107008;28;20661;-68
2022/02/13 01:18:36;;;;;;;7.53;5.03;;;3.90;97.00;;;;;;2105655;28;20361;-68
2022/02/13 01:19:37;;;;;;;7.80;5.00;;;3.90;97.00;;;;;;2106195;28;20032;-68
2022/02/13 01:20:37;;;;;;;8.77;5.18;;;3.90;97.00;;;;;;2105394;28;20437;-68
2022/02/13 01:21:38;;;;;;;7.85;4.47;;;3.90;96.90;;;;;;2103151;28;20047;-68
2022/02/13 01:22:38;;;;;;;9.43;5.35;;;3.80;96.80;;;;;;2103199;28;20025;-68
2022/02/13 01:23:40;;;;;;;10.48;5.00;;;3.80;96.80;;;;;;2100947;28;20028;-68
2022/02/13 01:24:41;;;;;;;9.45;5.72;;;3.90;97.00;;;;;;2104747;28;20055;-68
2022/02/13 01:25:42;;;;;;;7.85;4.68;;;3.90;97.00;;;;;;2104780;28;20492;-68
2022/02/13 01:26:43;;;;;;;6.28;3.83;;;3.80;97.00;;;;;;2105592;28;20085;-68
2022/02/13 01:27:43;;;;;;;6.30;4.55;;;3.80;97.00;;;;;;2104077;28;20089;-68
2022/02/13 01:28:44;;;;;;;7.45;4.82;;;3.80;97.00;;;;;;2103101;28;20076;-68
2022/02/13 01:29:44;;;;;;;8.90;4.82;;;3.80;96.90;;;;;;2105004;28;20028;-68
2022/02/13 01:30:46;;;;;;;11.30;4.82;;;3.80;96.90;;;;;;2103478;28;20030;-68
2022/02/13 01:31:46;;;;;;;10.52;5.30;;;3.80;96.90;;;;;;2104684;28;20114;-68
2022/02/13 01:32:47;;;;;;;11.80;4.53;;;3.80;96.80;;;;;;2108909;28;20039;-68
2022/02/13 01:33:48;;;;;;;6.50;4.47;;;3.70;96.80;;;;;;2105259;28;20017;-68
2022/02/13 01:34:48;;;;;;;8.98;4.93;;;3.80;97.00;;;;;;2107472;28;20012;-68
2022/02/13 01:35:49;;;;;;;9.35;4.55;;;3.70;97.10;;;;;;2106471;28;20043;-68
2022/02/13 01:36:49;;;;;;;7.78;4.40;;;3.70;97.10;;;;;;2105099;28;20492;-68
2022/02/13 01:37:50;;;;;;;7.15;4.70;;;3.70;97.10;;;;;;2103934;28;20442;-68
2022/02/13 01:38:50;;;;;;;9.02;4.93;;;3.70;97.20;;;;;;2102690;28;20103;-68
2022/02/13 01:39:51;;;;;;;10.18;5.32;;;3.70;97.40;;;;;;2105528;28;20404;-68
2022/02/13 01:40:52;;;;;;;10.98;4.53;;;3.70;97.50;;;;;;2108377;28;20518;-68
2022/02/13 01:41:55;;;;;;;11.10;4.88;;;3.70;97.60;;;;;;2105836;28;20483;-68
2022/02/13 01:42:55;;;;;;;6.50;4.85;;;3.70;97.50;;;;;;2100495;28;20023;-68
2022/02/13 01:43:56;;;;;;;12.07;4.65;;;3.70;97.40;;;;;;2103792;28;20063;-68
2022/02/13 01:44:58;;;;;;;8.55;4.35;;;3.70;97.30;;;;;;2106848;28;20024;-68
2022/02/13 01:45:59;;;;;;;9.80;4.68;;;3.70;97.30;;;;;;2103108;28;20032;-68
2022/02/13 01:47:03;;;;;;;11.43;5.80;;;3.60;97.20;;;;;;2102405;28;20029;-68
2022/02/13 01:48:08;;;;;;;7.10;5.00;;;3.70;97.50;;;;;;2109812;28;20638;-68
2022/02/13 01:49:08;;;;;;;7.20;4.20;;;3.70;97.50;;;;;;2106425;28;20028;-68
2022/02/13 01:50:10;;;;;;;9.13;5.10;;;3.60;97.50;;;;;;2107716;28;20016;-68
2022/02/13 01:51:11;;;;;;;6.28;4.28;;;3.60;97.50;;;;;;2101501;28;20012;-68
2022/02/13 01:52:11;;;;;;;8.68;4.85;;;3.60;97.40;;;;;;2104739;28;20114;-68
2022/02/13 01:53:13;;;;;;;11.13;4.97;;;3.60;97.50;;;;;;2104500;28;20021;-68
2022/02/13 01:54:13;;;;;;;9.25;5.18;;;3.60;97.60;;;;;;2102780;28;20154;-68
2022/02/13 01:55:14;;;;;;;9.43;5.03;;;3.60;97.70;;;;;;2103301;28;20028;-68
2022/02/13 01:56:15;;;;;;;12.98;5.40;;;3.60;97.70;;;;;;2108752;28;20541;-68
2022/02/13 01:57:16;;;;;;;10.63;4.68;;;3.60;97.80;;;;;;2105730;28;20149;-68
2022/02/13 01:58:16;;;;;;;11.15;4.60;;;3.60;97.90;;;;;;2103064;28;20019;-68
2022/02/13 01:59:17;;;;;;;7.70;5.07;;;3.60;98.00;;;;;;2105389;28;20030;-70
2022/02/13 02:00:18;;;;;;;9.02;5.22;;;3.50;97.90;;;;;;2104335;28;20058;-68
2022/02/13 02:01:18;;;;;;;11.57;4.65;;;3.50;98.00;;;;;;2106136;28;20089;-68
2022/02/13 02:02:19;;;;;;;9.32;5.15;;;3.60;98.10;;;;;;2105536;28;20157;-68
2022/02/13 02:03:19;;;;;;;10.10;5.00;;;3.50;98.20;;;;;;2108949;28;20027;-68
2022/02/13 02:04:20;;;;;;;6.55;4.70;;;3.50;98.20;;;;;;2104364;28;20145;-68
2022/02/13 02:05:20;;;;;;;11.65;4.78;;;3.50;98.10;;;;;;2100473;28;20028;-68
2022/02/13 02:06:21;;;;;;;6.95;4.63;;;3.50;98.10;;;;;;2104861;28;20023;-68
2022/02/13 02:07:21;;;;;;;9.30;4.57;;;3.50;98.00;;;;;;2107393;28;20024;-68
2022/02/13 02:08:22;;;;;;;9.85;5.00;;;3.50;98.10;;;;;;2105637;28;20065;-68
2022/02/13 02:09:26;;;;;;;6.82;4.78;;;3.50;98.10;;;;;;2107220;28;20028;-68
2022/02/13 02:10:27;;;;;;;6.95;4.80;;;3.50;98.20;;;;;;2103492;28;20372;-68
2022/02/13 02:11:27;;;;;;;8.60;4.80;;;3.50;98.20;;;;;;2107670;28;20098;-68
2022/02/13 02:12:28;;;;;;;8.55;5.40;;;3.50;98.20;;;;;;2110095;28;20015;-68
2022/02/13 02:13:28;;;;;;;7.30;4.57;;;3.50;98.10;;;;;;2107589;28;20047;-68
2022/02/13 02:14:29;;;;;;;9.45;5.30;;;3.50;98.20;;;;;;2109077;28;20051;-68
2022/02/13 02:15:29;;;;;;;7.03;4.57;;;3.50;98.10;;;;;;2101649;28;20118;-68
2022/02/13 02:16:30;;;;;;;9.80;5.15;;;3.50;98.10;;;;;;2104852;28;20061;-68
2022/02/13 02:17:30;;;;;;;8.25;4.90;;;3.40;98.20;;;;;;2105039;28;20024;-68
2022/02/13 02:18:31;;;;;;;7.45;4.72;;;3.50;98.30;;;;;;2107088;28;20460;-68
2022/02/13 02:19:31;;;;;;;9.82;4.60;;;3.40;98.40;;;;;;2106277;28;20102;-68
2022/02/13 02:20:48;;;;;;;8.07;4.43;;;3.40;98.50;;;;;;2105369;28;20032;-68
2022/02/13 02:21:48;;;;;;;9.73;4.90;;;3.40;98.50;;;;;;2103850;28;20496;-68
2022/02/13 02:22:54;;;;;;;7.63;4.72;;;3.40;98.60;;;;;;2104155;28;20043;-68
2022/02/13 02:23:57;;;;;;;9.27;4.85;;;3.40;98.90;;;;;;2099586;28;20166;-68
2022/02/13 02:24:57;;;;;;;6.30;4.32;;;3.40;98.90;;;;;;2106042;28;20459;-68
2022/02/13 02:25:58;;;;;;;7.45;4.72;;;3.40;98.80;;;;;;2106564;28;20024;-68
2022/02/13 02:27:00;;;;;;;14.25;5.35;;;3.40;98.70;;;;;;2102137;28;20020;-68
2022/02/13 02:28:00;;;;;;;7.68;4.57;;;3.40;98.70;;;;;;2105896;28;20027;-68
2022/02/13 02:29:01;;;;;;;7.78;4.40;;;3.40;98.70;;;;;;2104194;28;20044;-68
2022/02/13 02:30:01;;;;;;;8.10;4.78;;;3.30;98.60;;;;;;2105600;28;20060;-67
2022/02/13 02:31:02;;;;;;;7.38;4.45;;;3.30;98.60;;;;;;2102666;28;20024;-68
2022/02/13 02:32:04;;;;;;;7.47;4.75;;;3.30;98.90;;;;;;2103133;28;20092;-67
2022/02/13 02:33:11;;;;;;;7.65;4.20;;;3.30;99.00;;;;;;2102772;28;20480;-68
2022/02/13 02:34:11;;;;;;;6.22;4.20;;;3.30;99.10;;;;;;2105337;28;20028;-68
2022/02/13 02:35:12;;;;;;;8.23;4.45;;;3.30;99.00;;;;;;2105076;28;20035;-68
2022/02/13 02:36:17;;;;;;;7.75;4.70;;;3.30;99.00;;;;;;2101336;28;20082;-68
2022/02/13 02:37:18;;;;;;;9.35;5.13;;;3.20;99.00;;;;;;2102908;28;20020;-68
2022/02/13 02:38:18;;;;;;;8.70;4.70;;;3.30;98.80;;;;;;2105505;28;20077;-68
2022/02/13 02:39:19;;;;;;;7.55;4.53;;;3.20;98.80;;;;;;2103379;28;20031;-68
2022/02/13 02:40:23;;;;;;;8.60;6.03;;;3.20;98.60;;;;;;2106147;28;20145;-68
2022/02/13 02:41:23;;;;;;;9.20;5.03;;;3.20;98.70;;;;;;2103158;28;20415;-68
2022/02/13 02:42:24;;;;;;;7.82;4.82;;;3.10;98.70;;;;;;2105435;28;20028;-68
2022/02/13 02:43:25;;;;;;;9.05;4.88;;;3.10;98.70;;;;;;2109168;28;20089;-68
2022/02/13 02:44:25;;;;;;;9.20;4.80;;;3.10;98.80;;;;;;2108416;28;20019;-68
2022/02/13 02:45:26;;;;;;;8.65;5.03;;;3.00;98.90;;;;;;2107474;28;20047;-68
2022/02/13 02:46:26;;;;;;;7.47;4.85;;;3.00;99.00;;;;;;2108306;28;20020;-68
2022/02/13 02:47:27;;;;;;;7.85;5.22;;;3.00;99.20;;;;;;2107557;28;20024;-68
2022/02/13 02:48:28;;;;;;;7.10;4.78;;;3.00;99.40;;;;;;2106239;28;20600;-68
2022/02/13 02:49:28;;;;;;;7.40;4.82;;;3.00;99.90;;;;;;2103220;28;20028;-67
2022/02/13 02:50:29;;;;;;;7.10;4.40;;;3.00;99.90;;;;;;2105299;28;20512;-68
2022/02/13 02:51:29;;;;;;;7.60;4.80;;;3.00;99.90;;;;;;2105477;28;20370;-68
2022/02/13 02:52:30;;;;;;;9.52;4.40;;;3.00;99.90;;;;;;2108052;28;20031;-68
2022/02/13 02:53:33;;;;;;;11.70;5.70;;;3.00;99.90;;;;;;2107392;28;20015;-68
2022/02/13 02:54:34;;;;;;;9.98;4.68;;;3.00;99.90;;;;;;2106588;28;20023;-68
2022/02/13 02:55:35;;;;;;;5.20;4.40;;;3.00;99.90;;;;;;2105442;28;20051;-68
2022/02/13 02:56:35;;;;;;;6.60;4.53;;;2.90;99.90;;;;;;2104758;28;20032;-68
2022/02/13 02:57:36;;;;;;;8.57;5.40;;;2.90;99.90;;;;;;2106965;28;20023;-68
2022/02/13 02:58:36;;;;;;;6.72;4.95;;;2.90;99.90;;;;;;2103709;28;20609;-68
2022/02/13 02:59:37;;;;;;;10.32;5.35;;;2.90;99.90;;;;;;2109112;28;20019;-68
2022/02/13 03:00:38;;;;;;;7.03;3.90;;;2.90;99.90;;;;;;2108587;28;20380;-68
2022/02/13 03:01:38;;;;;;;7.93;4.90;;;2.90;99.90;;;;;;2108269;28;20038;-67
2022/02/13 03:02:39;;;;;;;9.75;4.70;;;2.80;99.90;;;;;;2105664;28;20023;-68
2022/02/13 03:03:39;;;;;;;6.13;4.70;;;2.80;99.90;;;;;;2106877;28;20085;-68
2022/02/13 03:04:40;;;;;;;9.80;4.90;;;2.80;99.90;;;;;;2103898;28;20372;-68
2022/02/13 03:05:40;;;;;;;9.80;4.95;;;2.80;99.90;;;;;;2104984;28;20067;-68
2022/02/13 03:06:42;;;;;;;6.78;4.22;;;2.80;99.90;;;;;;2099694;28;20158;-68
2022/02/13 03:07:42;;;;;;;5.53;3.63;;;2.80;99.90;;;;;;2108670;28;20028;-68
2022/02/13 03:08:43;;;;;;;7.78;4.53;;;2.80;99.90;;;;;;2109207;28;20027;-68
2022/02/13 03:09:43;;;;;;;8.98;5.00;;;2.80;99.90;;;;;;2108270;28;20017;-68
2022/02/13 03:10:45;;;;;;;7.65;4.45;;;2.70;99.90;;;;;;2105595;28;20091;-67
2022/02/13 03:11:45;;;;;;;5.10;4.28;;;2.70;99.90;;;;;;2106518;28;20012;-67
2022/02/13 03:12:46;;;;;;;8.13;3.97;;;2.70;99.90;;;;;;2105007;28;20066;-67
2022/02/13 03:13:47;;;;;;;10.18;5.03;;;2.70;99.90;;;;;;2105814;28;20024;-67
2022/02/13 03:14:48;;;;;;;7.75;5.38;;;2.70;99.90;;;;;;2110322;28;20039;-67
2022/02/13 03:15:49;;;;;;;6.57;5.10;;;2.70;99.90;;;;;;2105752;28;20535;-67
2022/02/13 03:16:50;;;;;;;4.88;4.30;;;2.70;99.90;;;;;;2108288;28;20028;-67
2022/02/13 03:17:50;;;;;;;7.43;4.60;;;2.60;99.90;;;;;;2106902;28;20020;-67
2022/02/13 03:18:52;;;;;;;9.68;4.53;;;2.60;99.90;;;;;;2106280;28;20318;-67
2022/02/13 03:19:53;;;;;;;7.10;4.60;;;2.60;99.90;;;;;;2105014;28;20038;-68
2022/02/13 03:20:53;;;;;;;5.70;4.00;;;2.60;99.90;;;;;;2103749;28;20036;-67
2022/02/13 03:21:54;;;;;;;7.05;4.28;;;2.60;99.90;;;;;;2106227;28;20036;-67
2022/02/13 03:22:54;;;;;;;7.15;4.60;;;2.60;99.90;;;;;;2108931;28;20484;-68
2022/02/13 03:23:55;;;;;;;7.47;5.15;;;2.60;99.90;;;;;;2105103;28;20476;-68
2022/02/13 03:24:59;;;;;;;7.82;4.40;;;2.50;99.90;;;;;;2103374;28;20027;-67
2022/02/13 03:26:00;;;;;;;7.25;4.80;;;2.50;99.90;;;;;;2103601;28;20105;-67
2022/02/13 03:27:00;;;;;;;8.23;5.68;;;2.50;99.90;;;;;;2106373;28;20074;-67
2022/02/13 03:28:01;;;;;;;8.02;4.68;;;2.50;99.90;;;;;;2104647;28;20034;-67
2022/02/13 03:29:02;;;;;;;6.82;4.80;;;2.50;99.90;;;;;;2103077;28;20112;-68
2022/02/13 03:30:04;;;;;;;9.90;5.28;;;2.40;99.90;;;;;;2105380;28;20540;-68
2022/02/13 03:31:05;;;;;;;10.90;5.00;;;2.40;99.90;;;;;;2109284;28;20024;-67
2022/02/13 03:32:05;;;;;;;8.60;4.82;;;2.40;99.90;;;;;;2107349;28;20033;-67
2022/02/13 03:33:06;;;;;;;9.80;5.00;;;2.40;99.90;;;;;;2108084;28;20453;-67
2022/02/13 03:34:07;;;;;;;8.15;4.80;;;2.40;99.90;;;;;;2108087;28;20024;-67
2022/02/13 03:35:08;;;;;;;9.07;4.97;;;2.40;99.90;;;;;;2107664;28;20386;-67
2022/02/13 03:36:09;;;;;;;7.53;5.40;;;2.30;99.90;;;;;;2105530;28;20028;-67
2022/02/13 03:37:09;;;;;;;8.13;5.28;;;2.30;99.90;;;;;;2106592;28;20111;-67
2022/02/13 03:38:10;;;;;;;8.07;4.88;;;2.30;99.90;;;;;;2108121;28;20032;-67
2022/02/13 03:39:11;;;;;;;7.50;4.75;;;2.30;99.90;;;;;;2106490;28;20038;-67
2022/02/13 03:40:12;;;;;;;5.63;4.03;;;2.30;99.90;;;;;;2107295;28;20079;-67
2022/02/13 03:41:13;;;;;;;6.22;4.53;;;2.20;99.90;;;;;;2104692;28;20029;-67
2022/02/13 03:42:14;;;;;;;6.15;5.18;;;2.20;99.90;;;;;;2107649;28;20060;-67
2022/02/13 03:43:14;;;;;;;6.78;4.95;;;2.20;99.90;;;;;;2106449;28;20026;-67
2022/02/13 03:44:15;;;;;;;8.60;5.13;;;2.20;99.90;;;;;;2104688;28;20481;-67
2022/02/13 03:45:16;;;;;;;10.63;5.45;;;2.10;99.90;;;;;;2106185;28;20668;-67
2022/02/13 03:46:17;;;;;;;8.20;5.07;;;2.10;99.90;;;;;;2105874;28;20050;-67
2022/02/13 03:47:17;;;;;;;9.25;4.72;;;2.10;99.90;;;;;;2108744;28;20489;-67
2022/02/13 03:48:18;;;;;;;8.35;5.10;;;2.10;99.90;;;;;;2107263;28;20026;-67
2022/02/13 03:49:19;;;;;;;6.82;5.10;;;2.10;99.90;;;;;;2106949;28;20024;-67
2022/02/13 03:50:20;;;;;;;7.65;4.90;;;2.10;99.90;;;;;;2104862;28;20055;-68
2022/02/13 03:51:20;;;;;;;8.82;5.18;;;2.10;99.90;;;;;;2106696;28;20440;-67
2022/02/13 03:52:21;;;;;;;6.05;4.95;;;2.10;99.90;;;;;;2106525;28;20101;-67
2022/02/13 03:53:22;;;;;;;10.82;4.90;;;2.10;99.90;;;;;;2103928;28;20432;-67
2022/02/13 03:54:23;;;;;;;6.43;4.53;;;2.00;99.90;;;;;;2107011;28;20534;-67
2022/02/13 03:55:23;;;;;;;8.02;4.80;;;2.00;99.90;;;;;;2108144;28;20015;-67
2022/02/13 03:56:24;;;;;;;6.95;4.47;;;2.00;99.90;;;;;;2104128;28;20020;-67
2022/02/13 03:57:24;;;;;;;8.00;4.50;;;2.00;99.90;;;;;;2103636;28;20408;-67
2022/02/13 03:58:25;;;;;;;7.85;4.47;;;2.00;99.90;;;;;;2104610;28;20031;-67
2022/02/13 03:59:26;;;;;;;6.22;4.93;;;2.00;99.90;;;;;;2105017;28;20023;-67
2022/02/13 04:00:26;;;;;;;8.15;4.55;;;2.00;99.90;;;;;;2106033;28;20020;-67
2022/02/13 04:01:27;;;;;;;8.10;4.80;;;2.00;99.90;;;;;;2101556;28;20098;-67
2022/02/13 04:02:27;;;;;;;7.80;4.70;;;2.00;99.90;;;;;;2103165;28;20023;-67
2022/02/13 04:03:28;;;;;;;8.82;4.75;;;2.00;99.90;;;;;;2108965;28;20028;-67
2022/02/13 04:04:28;;;;;;;6.30;4.88;;;2.00;99.90;;;;;;2105987;28;20023;-67
2022/02/13 04:05:29;;;;;;;6.85;4.35;;;2.00;99.90;;;;;;2105971;28;20016;-67
2022/02/13 04:06:29;;;;;;;7.32;4.65;;;2.00;99.90;;;;;;2107740;28;20039;-67
2022/02/13 04:07:30;;;;;;;8.13;5.00;;;2.00;99.90;;;;;;2104804;28;20048;-67
2022/02/13 04:08:30;;;;;;;10.10;5.45;;;2.00;99.90;;;;;;2103383;28;20016;-67
2022/02/13 04:09:31;;;;;;;8.30;4.63;;;2.00;99.90;;;;;;2104762;28;20718;-67
2022/02/13 04:10:32;;;;;;;9.82;4.80;;;2.00;99.90;;;;;;2104574;28;20069;-67
2022/02/13 04:11:33;;;;;;;6.65;4.50;;;2.00;99.90;;;;;;2108186;28;20040;-67
2022/02/13 04:12:33;;;;;;;6.50;4.93;;;2.00;99.90;;;;;;2104401;28;20079;-68
2022/02/13 04:13:34;;;;;;;7.05;4.88;;;2.00;99.90;;;;;;2105055;28;20024;-67
2022/02/13 04:14:35;;;;;;;7.10;4.80;;;2.00;99.90;;;;;;2106027;28;20028;-67
2022/02/13 04:15:35;;;;;;;5.30;4.05;;;2.00;99.90;;;;;;2102119;28;20020;-67
2022/02/13 04:16:36;;;;;;;6.60;4.85;;;2.00;99.90;;;;;;2103309;28;20036;-67
2022/02/13 04:17:36;;;;;;;7.25;4.28;;;2.00;99.90;;;;;;2104051;28;20042;-67
2022/02/13 04:18:37;;;;;;;7.43;4.45;;;1.90;99.90;;;;;;2105508;28;20117;-67
2022/02/13 04:19:37;;;;;;;7.70;4.72;;;1.90;99.90;;;;;;2108066;28;20020;-67
2022/02/13 04:20:38;;;;;;;6.43;4.60;;;1.90;99.90;;;;;;2103797;28;20097;-67
2022/02/13 04:21:39;;;;;;;7.57;4.70;;;1.90;99.90;;;;;;2104232;28;20492;-67
2022/02/13 04:22:40;;;;;;;7.55;4.82;;;1.90;99.90;;;;;;2102187;28;20029;-67
2022/02/13 04:23:41;;;;;;;6.80;4.10;;;1.90;99.90;;;;;;2103527;28;20045;-67
2022/02/13 04:24:42;;;;;;;9.68;4.53;;;1.90;99.90;;;;;;2104582;28;20040;-67
2022/02/13 04:25:42;;;;;;;7.28;4.20;;;1.90;99.90;;;;;;2101230;28;20028;-67
2022/02/13 04:26:43;;;;;;;6.38;4.40;;;1.90;99.90;;;;;;2104323;28;20028;-67
2022/02/13 04:27:44;;;;;;;5.55;4.63;;;1.90;99.90;;;;;;2105801;28;20016;-67
2022/02/13 04:28:45;;;;;;;5.47;4.25;;;1.90;99.90;;;;;;2104315;28;20027;-67
2022/02/13 04:29:45;;;;;;;9.05;4.40;;;1.90;99.90;;;;;;2099844;28;20027;-67
2022/02/13 04:30:46;;;;;;;9.30;4.95;;;1.90;99.90;;;;;;2104483;28;20025;-67
2022/02/13 04:31:46;;;;;;;5.00;4.40;;;1.90;99.90;;;;;;2105670;28;20084;-68
2022/02/13 04:32:47;;;;;;;11.18;4.85;;;1.90;99.90;;;;;;2102918;28;20032;-67
2022/02/13 04:33:47;;;;;;;6.15;4.38;;;1.90;99.90;;;;;;2101911;28;20043;-68
2022/02/13 04:34:48;;;;;;;7.15;4.10;;;2.00;99.90;;;;;;2105581;28;20027;-67
2022/02/13 04:35:49;;;;;;;6.72;4.18;;;2.00;99.90;;;;;;2107879;28;20103;-67
2022/02/13 04:36:49;;;;;;;9.25;4.25;;;2.00;99.90;;;;;;2105170;28;20020;-67
2022/02/13 04:37:56;;;;;;;8.90;4.50;;;2.00;99.90;;;;;;2106200;28;20021;-67
2022/02/13 04:38:57;;;;;;;7.32;4.38;;;2.00;99.90;;;;;;2103163;28;20028;-67
2022/02/13 04:39:57;;;;;;;9.68;5.10;;;2.10;99.90;;;;;;2106400;28;20464;-67
2022/02/13 04:40:58;;;;;;;6.18;4.57;;;2.10;99.90;;;;;;2102035;28;20024;-67
2022/02/13 04:41:59;;;;;;;8.05;4.05;;;2.10;99.90;;;;;;2106225;28;20012;-67
2022/02/13 04:42:59;;;;;;;7.88;4.25;;;2.10;99.90;;;;;;2109154;28;20112;-67
2022/02/13 04:44:00;;;;;;;7.20;4.30;;;2.10;99.90;;;;;;2106642;28;20024;-67
2022/02/13 04:45:00;;;;;;;5.38;4.35;;;2.20;99.90;;;;;;2106738;28;20044;-67
2022/02/13 04:46:01;;;;;;;6.97;4.18;;;2.20;99.90;;;;;;2105823;28;20037;-67
2022/02/13 04:47:02;;;;;;;8.38;4.88;;;2.20;99.90;;;;;;2106463;28;20454;-67
2022/02/13 04:48:02;;;;;;;8.50;4.18;;;2.30;99.90;;;;;;2102747;28;20033;-67
2022/02/13 04:49:03;;;;;;;5.75;3.90;;;2.30;99.90;;;;;;2102709;28;20579;-67
2022/02/13 04:50:04;;;;;;;7.90;4.35;;;2.30;99.90;;;;;;2106740;28;20054;-67
2022/02/13 04:51:05;;;;;;;5.07;3.70;;;2.30;99.90;;;;;;2108990;28;20024;-67
2022/02/13 04:52:05;;;;;;;6.75;4.78;;;2.30;99.90;;;;;;2106918;28;20099;-67
2022/02/13 04:53:06;;;;;;;5.93;4.00;;;2.30;99.90;;;;;;2105833;28;20043;-67
2022/02/13 04:54:06;;;;;;;8.70;4.53;;;2.30;99.90;;;;;;2104399;28;20055;-67
2022/02/13 04:55:07;;;;;;;7.18;4.22;;;2.40;99.90;;;;;;2101775;28;20453;-67
2022/02/13 04:56:07;;;;;;;5.20;4.30;;;2.40;99.90;;;;;;2105813;28;20035;-68
2022/02/13 04:57:08;;;;;;;6.13;3.97;;;2.40;99.90;;;;;;2103724;28;20100;-67
2022/02/13 04:58:09;;;;;;;7.60;4.25;;;2.40;99.90;;;;;;2105947;28;20037;-67
2022/02/13 04:59:09;;;;;;;9.13;4.63;;;2.40;99.90;;;;;;2108415;28;20122;-67
2022/02/13 05:00:11;;;;;;;7.00;4.18;;;2.40;99.90;;;;;;2107852;28;20116;-67
2022/02/13 05:01:13;;;;;;;5.85;4.00;;;2.50;99.90;;;;;;2109260;28;20097;-67
2022/02/13 05:02:14;;;;;;;6.70;4.30;;;2.40;99.90;;;;;;2105373;28;20032;-67
2022/02/13 05:03:15;;;;;;;8.88;4.65;;;2.50;99.70;;;;;;2105117;28;20026;-67
2022/02/13 05:04:17;;;;;;;7.78;4.57;;;2.50;99.80;;;;;;2105187;28;20036;-68
2022/02/13 05:05:18;;;;;;;6.50;4.20;;;2.50;99.70;;;;;;2106188;28;20032;-67
2022/02/13 05:06:18;;;;;;;6.57;4.32;;;2.50;99.60;;;;;;2109774;28;20023;-67
2022/02/13 05:07:19;;;;;;;5.75;4.30;;;2.50;99.50;;;;;;2106858;28;20451;-67
2022/02/13 05:08:20;;;;;;;6.43;4.45;;;2.50;99.30;;;;;;2105815;28;20122;-67
2022/02/13 05:09:21;;;;;;;5.65;3.95;;;2.50;98.90;;;;;;2105595;28;20024;-67
2022/02/13 05:10:21;;;;;;;5.22;4.10;;;2.60;99.00;;;;;;2105553;28;20123;-67
2022/02/13 05:11:22;;;;;;;7.90;4.50;;;2.60;98.90;;;;;;2108218;28;20107;-68
2022/02/13 05:12:23;;;;;;;5.32;4.28;;;2.60;98.80;;;;;;2107399;28;20125;-67
2022/02/13 05:13:23;;;;;;;5.85;4.00;;;2.60;98.70;;;;;;2105288;28;20020;-67
2022/02/13 05:14:24;;;;;;;6.35;4.53;;;2.60;98.70;;;;;;2106346;28;20069;-67
2022/02/13 05:15:25;;;;;;;5.53;4.25;;;2.60;98.60;;;;;;2106626;28;20062;-67
2022/02/13 05:16:25;;;;;;;9.27;4.45;;;2.60;98.50;;;;;;2107754;28;20023;-67
2022/02/13 05:17:26;;;;;;;6.40;4.13;;;2.60;98.50;;;;;;2108678;28;20016;-67
2022/02/13 05:18:26;;;;;;;5.53;4.20;;;2.60;98.10;;;;;;2105464;28;20031;-67
2022/02/13 05:19:27;;;;;;;5.65;4.13;;;2.60;98.00;;;;;;2104528;28;20027;-67
2022/02/13 05:20:28;;;;;;;6.28;3.88;;;2.60;97.90;;;;;;2103133;28;20016;-67